Time;durP1;ratioP1;P1;durP2;ratioP2;P2;SDS_P1;SDS_P2;PMS_P1;PMS_P2;Temp;Humidity;BMP_temperature;BMP_pressure;BME280_temperature;BME280_humidity;BME280_pressure;Samples;Min_cycle;Max_cycle;Signal;HPM_P1;HPM_P2
2022/07/12 00:01:24;;;;;;;8.20;5.90;;;20.50;38.80;;;;;;5032474;28;20276;-67
2022/07/12 00:03:49;;;;;;;9.00;5.90;;;20.50;38.30;;;;;;5024693;28;20204;-68
2022/07/12 00:06:15;;;;;;;8.47;6.20;;;20.50;39.40;;;;;;5032224;28;20182;-67
2022/07/12 00:08:40;;;;;;;8.23;6.50;;;20.50;39.90;;;;;;5032704;28;20198;-67
2022/07/12 00:11:06;;;;;;;15.10;6.20;;;20.50;39.10;;;;;;5028395;28;20206;-67
2022/07/12 00:13:32;;;;;;;10.33;6.30;;;20.50;39.50;;;;;;5026450;28;20197;-67
2022/07/12 00:15:58;;;;;;;8.93;7.07;;;20.60;38.60;;;;;;5031738;28;20430;-67
2022/07/12 00:18:24;;;;;;;11.67;6.97;;;20.30;39.00;;;;;;5028408;28;20469;-67
2022/07/12 00:20:50;;;;;;;8.63;6.80;;;20.20;39.40;;;;;;5031951;28;20204;-68
2022/07/12 00:23:16;;;;;;;8.03;7.00;;;20.00;40.40;;;;;;5026797;28;20180;-67
2022/07/12 00:25:42;;;;;;;10.07;6.77;;;19.70;41.10;;;;;;5032177;28;20433;-68
2022/07/12 00:28:08;;;;;;;15.30;6.40;;;19.90;41.70;;;;;;5020864;28;20440;-67
2022/07/12 00:30:33;;;;;;;9.13;6.73;;;20.00;40.50;;;;;;5032632;28;20180;-67
2022/07/12 00:32:59;;;;;;;9.43;6.87;;;20.10;40.40;;;;;;5029756;28;20610;-67
2022/07/12 00:35:25;;;;;;;9.60;7.17;;;20.30;40.20;;;;;;5020462;28;20208;-67
2022/07/12 00:37:50;;;;;;;8.27;6.60;;;20.60;39.10;;;;;;5028019;28;20609;-67
2022/07/12 00:40:16;;;;;;;9.30;6.13;;;20.70;39.70;;;;;;5031569;28;20796;-67
2022/07/12 00:42:42;;;;;;;9.73;6.30;;;20.50;39.80;;;;;;5031189;28;20215;-67
2022/07/12 00:45:09;;;;;;;7.13;6.60;;;20.50;39.40;;;;;;5031497;28;20190;-67
2022/07/12 00:47:44;;;;;;;8.80;6.97;;;20.50;39.00;;;;;;5030652;28;20200;-69
2022/07/12 00:50:18;;;;;;;10.40;7.27;;;20.50;39.90;;;;;;5031118;28;20419;-67
2022/07/12 00:52:45;;;;;;;8.77;6.60;;;20.30;39.50;;;;;;5024184;28;20443;-67
2022/07/12 00:55:13;;;;;;;10.00;7.70;;;20.30;40.20;;;;;;5030045;28;21001;-67
2022/07/12 00:57:41;;;;;;;9.50;7.43;;;20.20;40.30;;;;;;5027045;28;20419;-67
2022/07/12 01:00:09;;;;;;;12.77;7.57;;;20.00;40.60;;;;;;5028672;28;20998;-67
2022/07/12 01:02:36;;;;;;;15.07;7.10;;;20.00;41.60;;;;;;5030956;28;20845;-67
2022/07/12 01:05:05;;;;;;;11.93;7.00;;;19.70;41.40;;;;;;5030478;28;20430;-67
2022/07/12 01:07:32;;;;;;;12.63;7.30;;;19.60;42.20;;;;;;5031777;28;20420;-68
2022/07/12 01:09:58;;;;;;;8.33;7.07;;;19.50;41.80;;;;;;5031674;28;20438;-67
2022/07/12 01:12:24;;;;;;;8.63;7.10;;;19.70;41.40;;;;;;5027189;28;20469;-67
2022/07/12 01:14:51;;;;;;;8.37;6.77;;;19.60;41.30;;;;;;5024960;28;20450;-67
2022/07/12 01:17:21;;;;;;;8.60;7.30;;;19.60;41.90;;;;;;5031279;28;20437;-67
2022/07/12 01:19:52;;;;;;;8.50;7.20;;;19.50;42.10;;;;;;5030797;28;20450;-67
2022/07/12 01:22:20;;;;;;;8.43;7.40;;;19.50;42.30;;;;;;5029645;28;20836;-67
2022/07/12 01:24:46;;;;;;;10.07;7.20;;;19.50;42.30;;;;;;5030465;28;20443;-66
2022/07/12 01:27:13;;;;;;;9.83;7.30;;;19.60;42.30;;;;;;5031234;28;20811;-69
2022/07/12 01:29:39;;;;;;;8.43;7.30;;;19.60;42.50;;;;;;5026324;28;20191;-67
2022/07/12 01:32:24;;;;;;;10.20;7.73;;;19.60;42.00;;;;;;5026907;28;20473;-67
2022/07/12 01:35:05;;;;;;;9.80;6.63;;;19.50;41.60;;;;;;5025159;28;20795;-67
2022/07/12 01:37:34;;;;;;;9.77;6.80;;;19.40;42.70;;;;;;5022745;28;20432;-67
2022/07/12 01:40:00;;;;;;;10.50;7.40;;;19.30;42.60;;;;;;5030945;28;20453;-68
2022/07/12 01:42:28;;;;;;;9.93;7.60;;;19.20;42.90;;;;;;5030403;28;20496;-67
2022/07/12 01:44:53;;;;;;;10.80;9.30;;;19.00;43.60;;;;;;5028044;28;20446;-66
2022/07/12 01:47:21;;;;;;;13.10;9.30;;;19.00;42.90;;;;;;5025542;28;20437;-67
2022/07/12 01:49:47;;;;;;;13.40;10.60;;;18.80;43.60;;;;;;5031150;28;20673;-67
2022/07/12 01:52:16;;;;;;;11.77;9.47;;;18.70;43.80;;;;;;5022539;28;20472;-67
2022/07/12 01:54:42;;;;;;;11.53;9.47;;;18.80;44.00;;;;;;5026613;28;20621;-66
2022/07/12 01:57:08;;;;;;;17.47;9.57;;;18.50;44.10;;;;;;5026043;28;20494;-68
2022/07/12 01:59:34;;;;;;;13.90;8.87;;;18.40;46.20;;;;;;5031327;28;20456;-67
2022/07/12 02:02:00;;;;;;;12.60;8.83;;;18.40;46.90;;;;;;5022657;28;20692;-66
2022/07/12 02:04:26;;;;;;;17.60;9.00;;;18.40;47.30;;;;;;5022727;28;20273;-68
2022/07/12 02:06:52;;;;;;;12.80;9.87;;;18.60;47.00;;;;;;5029311;28;20991;-67
2022/07/12 02:09:18;;;;;;;15.17;9.43;;;18.80;46.10;;;;;;5030655;28;20182;-67
2022/07/12 02:11:47;;;;;;;14.00;10.30;;;19.00;45.40;;;;;;5030733;28;20205;-67
2022/07/12 02:14:14;;;;;;;10.53;8.80;;;18.90;45.60;;;;;;5025735;28;20526;-67
2022/07/12 02:16:41;;;;;;;11.60;9.60;;;19.00;44.70;;;;;;5022020;28;20429;-67
2022/07/12 02:19:07;;;;;;;16.10;9.47;;;19.30;43.60;;;;;;5025943;28;20452;-67
2022/07/12 02:21:33;;;;;;;12.27;9.00;;;19.20;43.20;;;;;;5030229;28;20947;-68
2022/07/12 02:23:59;;;;;;;13.17;9.50;;;19.00;43.60;;;;;;5026565;28;20451;-68
2022/07/12 02:26:25;;;;;;;16.00;9.00;;;19.00;43.90;;;;;;5030700;28;20505;-67
2022/07/12 02:28:50;;;;;;;10.47;8.33;;;19.00;43.90;;;;;;5022670;28;20470;-67
2022/07/12 02:31:16;;;;;;;10.03;8.73;;;19.20;44.00;;;;;;5024466;28;20209;-67
2022/07/12 02:33:42;;;;;;;11.90;8.57;;;19.10;44.00;;;;;;5027119;28;20180;-67
2022/07/12 02:36:08;;;;;;;10.50;9.30;;;18.90;43.70;;;;;;5030112;28;20191;-67
2022/07/12 02:38:34;;;;;;;12.27;9.13;;;19.00;44.30;;;;;;5030790;28;20513;-67
2022/07/12 02:40:59;;;;;;;14.70;9.63;;;18.80;45.40;;;;;;5023188;28;20258;-67
2022/07/12 02:43:30;;;;;;;11.37;8.97;;;18.80;44.60;;;;;;5029756;28;20192;-68
2022/07/12 02:46:07;;;;;;;11.90;8.70;;;18.70;44.60;;;;;;5033586;28;20262;-67
2022/07/12 02:48:33;;;;;;;9.83;8.63;;;18.70;45.00;;;;;;5030274;28;20423;-67
2022/07/12 02:51:03;;;;;;;9.30;8.23;;;18.70;44.90;;;;;;5025307;28;20993;-67
2022/07/12 02:53:29;;;;;;;9.90;8.50;;;18.80;44.90;;;;;;5027618;28;20188;-67
2022/07/12 02:55:55;;;;;;;11.03;8.90;;;18.70;45.00;;;;;;5031412;28;20454;-67
2022/07/12 02:58:21;;;;;;;10.17;8.20;;;18.60;45.70;;;;;;5033253;28;20953;-67
2022/07/12 03:00:46;;;;;;;10.00;8.00;;;18.70;45.20;;;;;;5033248;28;20201;-67
2022/07/12 03:03:13;;;;;;;9.53;8.20;;;18.70;45.00;;;;;;5030270;28;20210;-67
2022/07/12 03:05:39;;;;;;;10.03;8.03;;;18.90;44.10;;;;;;5028105;28;20269;-67
2022/07/12 03:08:07;;;;;;;10.57;7.87;;;18.90;43.90;;;;;;5026355;28;20483;-67
2022/07/12 03:10:33;;;;;;;9.27;7.60;;;19.00;43.60;;;;;;5033883;28;20462;-67
2022/07/12 03:12:59;;;;;;;8.60;7.67;;;18.80;43.80;;;;;;5017763;28;20484;-67
2022/07/12 03:15:25;;;;;;;9.50;7.90;;;18.90;43.80;;;;;;5028485;28;20452;-67
2022/07/12 03:17:51;;;;;;;10.23;7.87;;;18.80;44.20;;;;;;5023293;28;20272;-68
2022/07/12 03:20:16;;;;;;;9.47;7.90;;;18.90;43.80;;;;;;5033677;28;20486;-67
2022/07/12 03:22:43;;;;;;;9.10;7.73;;;19.10;43.00;;;;;;5026112;28;20213;-67
2022/07/12 03:25:09;;;;;;;9.73;7.93;;;18.90;43.30;;;;;;5032802;28;20182;-67
2022/07/12 03:27:35;;;;;;;11.40;8.47;;;18.80;43.50;;;;;;5032227;28;20439;-67
2022/07/12 03:30:01;;;;;;;12.93;8.30;;;18.90;43.90;;;;;;5032235;28;20259;-68
2022/07/12 03:32:27;;;;;;;11.07;8.43;;;19.00;43.60;;;;;;5026645;28;20201;-67
2022/07/12 03:34:53;;;;;;;9.30;7.47;;;19.00;43.40;;;;;;5032758;28;20422;-67
2022/07/12 03:37:18;;;;;;;14.03;8.07;;;18.90;44.50;;;;;;5026082;28;20238;-66
2022/07/12 03:39:44;;;;;;;14.50;8.17;;;18.90;44.30;;;;;;5033597;28;20204;-67
2022/07/12 03:42:12;;;;;;;10.23;8.20;;;18.70;44.30;;;;;;5030632;28;20671;-67
2022/07/12 03:44:37;;;;;;;12.70;8.20;;;18.70;44.70;;;;;;5027729;28;20185;-67
2022/07/12 03:47:03;;;;;;;16.43;8.30;;;18.70;45.20;;;;;;5024318;28;20432;-67
2022/07/12 03:49:29;;;;;;;14.33;8.80;;;18.60;45.20;;;;;;5033510;28;20180;-67
2022/07/12 03:51:55;;;;;;;15.43;9.10;;;18.60;44.90;;;;;;5025065;28;20453;-66
2022/07/12 03:54:20;;;;;;;19.17;8.30;;;18.50;44.60;;;;;;5027705;28;20261;-67
2022/07/12 03:59:30;;;;;;;9.93;8.80;;;18.40;45.40;;;;;;5032738;28;20250;-67
2022/07/12 04:01:55;;;;;;;14.73;8.60;;;18.50;44.90;;;;;;5031537;28;20451;-67
2022/07/12 04:04:21;;;;;;;11.43;8.80;;;18.50;44.90;;;;;;5031873;28;20186;-68
2022/07/12 04:06:47;;;;;;;13.50;8.23;;;18.10;46.80;;;;;;5022422;28;20186;-67
2022/07/12 04:09:13;;;;;;;12.50;8.30;;;18.10;47.40;;;;;;5031445;28;20639;-67
2022/07/12 04:11:39;;;;;;;10.40;7.70;;;18.40;47.40;;;;;;5025388;28;20217;-66
2022/07/12 04:14:05;;;;;;;15.93;8.07;;;18.50;46.50;;;;;;5024222;28;20457;-67
2022/07/12 04:16:31;;;;;;;9.43;8.50;;;18.50;46.30;;;;;;5024618;28;20212;-67
2022/07/12 04:18:57;;;;;;;9.80;8.60;;;18.50;46.40;;;;;;5031064;28;20193;-67
2022/07/12 04:21:22;;;;;;;12.30;8.80;;;18.40;45.90;;;;;;5030858;28;20455;-67
2022/07/12 04:23:48;;;;;;;13.67;10.50;;;18.40;47.40;;;;;;5032126;28;20647;-67
2022/07/12 04:26:13;;;;;;;17.70;12.17;;;18.40;47.10;;;;;;5027178;28;20185;-68
2022/07/12 04:28:39;;;;;;;15.80;12.30;;;18.50;46.40;;;;;;5027755;28;20264;-67
2022/07/12 04:31:06;;;;;;;17.53;13.77;;;18.40;46.60;;;;;;5029220;28;20200;-67
2022/07/12 04:33:32;;;;;;;17.20;13.60;;;18.50;46.30;;;;;;5030857;28;20192;-68
2022/07/12 04:35:58;;;;;;;20.87;13.23;;;18.50;47.00;;;;;;5027451;28;20526;-68
2022/07/12 04:38:24;;;;;;;19.47;14.77;;;18.60;45.80;;;;;;5029451;28;20570;-66
2022/07/12 04:40:49;;;;;;;20.30;12.83;;;18.70;45.60;;;;;;5030590;28;20287;-66
2022/07/12 04:43:15;;;;;;;19.53;13.60;;;18.60;45.60;;;;;;5031431;28;20265;-67
2022/07/12 04:45:43;;;;;;;15.70;13.03;;;18.70;45.40;;;;;;5023102;28;20198;-67
2022/07/12 04:48:10;;;;;;;19.47;13.87;;;18.90;44.70;;;;;;5062803;22;20225;-71
2022/07/12 04:50:35;;;;;;;23.40;14.47;;;18.80;45.00;;;;;;5068620;28;20466;-71
2022/07/12 04:53:01;;;;;;;17.10;14.20;;;18.50;45.90;;;;;;5067668;28;20525;-72
2022/07/12 04:55:27;;;;;;;20.50;12.23;;;18.10;47.70;;;;;;5068434;28;20195;-73
2022/07/12 04:57:53;;;;;;;18.17;12.13;;;17.80;49.70;;;;;;5068021;28;20196;-69
2022/07/12 05:00:18;;;;;;;16.53;12.80;;;17.80;50.00;;;;;;5069535;28;20212;-70
2022/07/12 05:02:44;;;;;;;18.17;12.43;;;18.20;49.10;;;;;;5065499;28;20385;-70
2022/07/12 05:05:09;;;;;;;16.03;13.20;;;18.20;47.60;;;;;;5065299;28;20178;-70
2022/07/12 05:07:35;;;;;;;16.97;13.23;;;18.40;47.50;;;;;;5068122;28;20198;-69
2022/07/12 05:10:01;;;;;;;18.23;13.63;;;18.40;47.40;;;;;;5070538;28;20527;-69
2022/07/12 05:12:26;;;;;;;19.67;13.70;;;18.70;46.90;;;;;;5069060;28;20253;-70
2022/07/12 05:14:52;;;;;;;24.70;12.93;;;18.50;47.70;;;;;;5070841;28;20586;-70
2022/07/12 05:17:17;;;;;;;20.00;12.80;;;18.50;46.90;;;;;;5071387;28;20179;-70
2022/07/12 05:19:43;;;;;;;25.93;12.30;;;18.60;46.70;;;;;;5062597;28;20632;-70
2022/07/12 05:22:09;;;;;;;19.33;12.60;;;18.90;46.20;;;;;;5067545;28;20544;-70
2022/07/12 05:24:35;;;;;;;16.57;11.93;;;18.90;45.40;;;;;;5070556;28;20423;-70
2022/07/12 05:27:00;;;;;;;17.20;12.20;;;18.50;46.40;;;;;;5070714;28;20175;-70
2022/07/12 05:29:26;;;;;;;23.07;12.30;;;18.70;46.60;;;;;;5071289;28;20205;-70
2022/07/12 05:31:55;;;;;;;18.17;12.83;;;19.00;46.70;;;;;;5069068;28;20178;-70
2022/07/12 05:34:21;;;;;;;17.53;13.50;;;19.40;45.00;;;;;;5062026;28;20177;-70
2022/07/12 05:36:46;;;;;;;16.63;12.40;;;19.20;44.30;;;;;;5070890;28;20435;-70
2022/07/12 05:39:12;;;;;;;18.20;12.50;;;19.00;45.40;;;;;;5070675;28;20551;-70
2022/07/12 05:41:38;;;;;;;27.83;12.77;;;18.90;45.80;;;;;;5068255;28;20270;-70
2022/07/12 05:44:04;;;;;;;16.90;11.80;;;19.10;45.20;;;;;;5067833;28;20179;-69
2022/07/12 05:46:30;;;;;;;21.63;13.13;;;19.10;45.50;;;;;;5068818;28;20982;-70
2022/07/12 05:48:56;;;;;;;15.80;12.07;;;19.00;45.60;;;;;;5069791;28;20541;-70
2022/07/12 05:54:06;;;;;;;18.43;11.73;;;18.70;46.50;;;;;;5062172;28;20181;-69
2022/07/12 05:56:31;;;;;;;18.53;12.17;;;18.70;47.70;;;;;;5068663;28;20436;-70
2022/07/12 05:58:57;;;;;;;23.40;11.77;;;19.30;46.40;;;;;;5070403;28;20208;-70
2022/07/12 06:01:23;;;;;;;16.73;12.03;;;19.40;45.00;;;;;;5062491;28;20191;-70
2022/07/12 06:03:49;;;;;;;18.23;11.43;;;19.20;45.20;;;;;;5062274;28;20435;-70
2022/07/12 06:06:14;;;;;;;20.97;11.90;;;19.30;46.60;;;;;;5060169;28;20189;-70
2022/07/12 06:08:40;;;;;;;12.37;10.80;;;19.40;45.50;;;;;;5065117;28;20750;-70
2022/07/12 06:11:06;;;;;;;14.60;11.17;;;19.40;45.70;;;;;;5066169;28;20178;-70
2022/07/12 06:13:32;;;;;;;13.47;9.90;;;19.10;45.90;;;;;;5066964;28;20258;-72
2022/07/12 06:15:59;;;;;;;11.50;9.83;;;19.00;46.90;;;;;;5072176;28;20781;-70
2022/07/12 06:18:24;;;;;;;13.70;10.40;;;18.60;49.10;;;;;;5075083;28;20214;-70
2022/07/12 06:20:50;;;;;;;21.90;10.40;;;19.10;49.10;;;;;;5071636;28;20482;-71
2022/07/12 06:23:16;;;;;;;15.43;11.30;;;19.90;46.20;;;;;;5067627;28;20192;-71
2022/07/12 06:25:41;;;;;;;15.20;10.53;;;20.30;42.50;;;;;;5069921;28;20182;-71
2022/07/12 06:28:07;;;;;;;15.83;11.53;;;20.30;41.90;;;;;;5073468;28;20190;-70
2022/07/12 06:30:32;;;;;;;13.83;11.50;;;20.10;42.30;;;;;;5069862;28;20179;-71
2022/07/12 06:32:58;;;;;;;21.20;11.27;;;20.20;42.80;;;;;;5073517;28;20172;-71
2022/07/12 06:35:24;;;;;;;13.57;10.90;;;19.60;44.30;;;;;;5068525;28;20245;-73
2022/07/12 06:37:49;;;;;;;12.77;10.07;;;20.10;44.20;;;;;;5066117;28;20202;-72
2022/07/12 06:40:16;;;;;;;11.90;9.77;;;20.00;44.40;;;;;;5068072;28;20243;-71
2022/07/12 06:42:43;;;;;;;13.93;10.00;;;20.60;43.70;;;;;;5070147;28;20221;-71
2022/07/12 06:45:09;;;;;;;14.43;10.40;;;20.20;43.20;;;;;;5065607;28;20501;-72
2022/07/12 06:47:35;;;;;;;12.33;10.30;;;20.50;43.70;;;;;;5072549;28;20402;-72
2022/07/12 06:50:01;;;;;;;14.43;10.50;;;20.90;42.60;;;;;;5073339;28;20444;-71
2022/07/12 06:52:26;;;;;;;16.50;10.73;;;20.60;42.20;;;;;;5069382;28;20212;-72
2022/07/12 06:54:52;;;;;;;14.73;10.30;;;20.40;43.30;;;;;;5068641;28;20510;-71
2022/07/12 06:57:18;;;;;;;13.57;9.77;;;20.70;42.40;;;;;;5073567;28;20280;-71
2022/07/12 06:59:43;;;;;;;13.70;10.03;;;21.20;42.20;;;;;;5074266;28;20664;-71
2022/07/12 07:02:09;;;;;;;13.00;8.90;;;21.40;40.80;;;;;;5069820;28;20176;-71
2022/07/12 07:04:34;;;;;;;11.73;8.30;;;21.70;39.20;;;;;;5073347;28;20209;-71
2022/07/12 07:07:00;;;;;;;8.80;7.77;;;21.80;39.30;;;;;;5064810;28;20184;-71
2022/07/12 07:09:26;;;;;;;11.50;8.20;;;21.90;39.70;;;;;;5064223;28;20206;-70
2022/07/12 07:11:53;;;;;;;9.40;7.50;;;21.30;39.70;;;;;;5071677;28;20211;-71
2022/07/12 07:14:19;;;;;;;28.00;8.97;;;23.10;43.10;;;;;;5069844;28;20875;-71
2022/07/12 07:16:44;;;;;;;12.33;8.47;;;20.60;43.00;;;;;;5072077;28;20761;-71
2022/07/12 07:19:10;;;;;;;10.50;8.30;;;20.50;44.10;;;;;;5072990;28;20822;-70
2022/07/12 07:21:36;;;;;;;9.27;8.07;;;20.70;43.60;;;;;;5071159;28;20183;-71
2022/07/12 07:24:02;;;;;;;13.03;8.13;;;21.00;42.80;;;;;;5069025;28;20664;-71
2022/07/12 07:26:28;;;;;;;12.30;9.07;;;21.30;42.30;;;;;;5069771;28;20172;-71
2022/07/12 07:31:38;;;;;;;12.10;7.17;;;21.80;40.40;;;;;;5068825;28;20308;-72
2022/07/12 07:34:04;;;;;;;14.20;8.03;;;22.30;40.10;;;;;;5063436;28;20463;-71
2022/07/12 07:36:30;;;;;;;11.03;8.17;;;22.30;39.70;;;;;;5070432;28;20190;-71
2022/07/12 07:38:57;;;;;;;9.63;7.83;;;22.30;38.80;;;;;;5068806;28;20459;-71
2022/07/12 07:41:23;;;;;;;9.17;7.50;;;22.00;39.30;;;;;;5067502;28;20990;-71
2022/07/12 07:43:49;;;;;;;10.00;7.40;;;21.90;41.30;;;;;;5066073;28;20435;-70
2022/07/12 07:46:14;;;;;;;7.40;6.63;;;22.40;39.10;;;;;;5069792;28;20196;-71
2022/07/12 07:48:40;;;;;;;9.87;6.97;;;22.30;37.50;;;;;;5070887;28;20235;-71
2022/07/12 07:51:05;;;;;;;6.47;5.77;;;22.40;38.00;;;;;;5070961;28;20191;-71
2022/07/12 07:53:31;;;;;;;10.17;6.73;;;22.20;37.90;;;;;;5071464;28;20183;-71
2022/07/12 07:55:57;;;;;;;7.00;6.23;;;22.60;37.80;;;;;;5067279;28;20205;-72
2022/07/12 07:58:23;;;;;;;15.73;6.20;;;22.60;37.90;;;;;;5069154;28;20211;-71
2022/07/12 08:00:53;;;;;;;7.70;6.53;;;22.60;38.30;;;;;;5070819;28;20958;-71
2022/07/12 08:03:19;;;;;;;7.97;6.27;;;23.00;36.50;;;;;;5071411;28;21004;-71
2022/07/12 08:05:46;;;;;;;6.03;5.10;;;23.20;35.80;;;;;;5072406;28;20423;-71
2022/07/12 08:08:11;;;;;;;7.73;6.57;;;23.30;35.70;;;;;;5071420;28;20587;-70
2022/07/12 08:10:37;;;;;;;7.87;5.40;;;23.10;35.70;;;;;;5072868;28;20883;-71
2022/07/12 08:13:03;;;;;;;8.37;5.90;;;22.50;36.10;;;;;;5069129;28;20180;-71
2022/07/12 08:15:30;;;;;;;7.93;5.50;;;22.00;37.80;;;;;;5064780;28;20182;-71
2022/07/12 08:17:55;;;;;;;11.77;6.23;;;22.40;39.20;;;;;;5071670;28;20447;-72
2022/07/12 08:20:24;;;;;;;9.20;6.30;;;23.00;37.80;;;;;;5072014;28;20527;-72
2022/07/12 08:22:50;;;;;;;7.43;6.00;;;22.50;37.70;;;;;;5065275;28;20641;-72
2022/07/12 08:25:16;;;;;;;10.70;5.63;;;22.70;37.20;;;;;;5069192;28;20445;-72
2022/07/12 08:27:42;;;;;;;6.10;5.43;;;22.80;35.80;;;;;;5068657;28;20265;-72
2022/07/12 08:30:08;;;;;;;8.50;6.00;;;22.70;36.50;;;;;;5068609;28;20543;-72
2022/07/12 08:32:34;;;;;;;7.17;5.70;;;23.00;36.80;;;;;;5070684;28;20530;-73
2022/07/12 08:35:00;;;;;;;5.50;5.20;;;23.50;35.80;;;;;;5069044;28;20443;-72
2022/07/12 08:37:26;;;;;;;9.77;5.67;;;23.70;34.40;;;;;;5071538;28;20185;-72
2022/07/12 08:39:51;;;;;;;11.53;5.80;;;23.40;34.00;;;;;;5071235;28;20492;-72
2022/07/12 08:42:21;;;;;;;6.43;5.70;;;23.10;34.60;;;;;;5070915;28;20257;-71
2022/07/12 08:44:56;;;;;;;6.83;5.37;;;23.60;34.30;;;;;;5063868;28;20270;-72
2022/07/12 08:47:22;;;;;;;8.93;5.50;;;23.00;34.00;;;;;;5067333;28;20424;-72
2022/07/12 08:50:11;;;;;;;6.73;5.20;;;23.40;35.10;;;;;;5068853;28;20491;-73
2022/07/12 08:52:42;;;;;;;11.50;4.53;;;24.00;33.30;;;;;;5066323;28;20962;-72
2022/07/12 08:55:33;;;;;;;7.07;5.00;;;24.30;31.70;;;;;;5071384;28;20417;-72
2022/07/12 08:58:02;;;;;;;13.77;5.00;;;24.00;32.40;;;;;;5057170;28;20461;-72
2022/07/12 09:00:29;;;;;;;6.50;5.13;;;24.00;32.90;;;;;;5066966;28;20506;-72
2022/07/12 09:03:00;;;;;;;5.53;5.00;;;24.40;32.00;;;;;;5068559;28;20429;-73
2022/07/12 09:05:30;;;;;;;5.60;4.33;;;24.60;32.90;;;;;;5067297;28;20985;-72
2022/07/12 09:08:09;;;;;;;5.97;4.40;;;24.90;29.80;;;;;;5070255;28;20457;-72
2022/07/12 09:10:51;;;;;;;4.57;4.27;;;23.70;32.00;;;;;;5068302;28;20439;-74
2022/07/12 09:13:17;;;;;;;7.77;4.40;;;23.70;31.60;;;;;;5064769;28;20471;-73
2022/07/12 09:15:43;;;;;;;5.00;4.20;;;23.10;33.80;;;;;;5071087;28;20434;-71
2022/07/12 09:18:17;;;;;;;7.60;4.30;;;23.30;32.60;;;;;;5070294;28;20494;-72
2022/07/12 09:20:50;;;;;;;4.67;4.37;;;23.80;33.40;;;;;;5068767;28;20260;-71
2022/07/12 09:23:15;;;;;;;4.73;3.90;;;24.10;31.50;;;;;;5069798;28;20436;-72
2022/07/12 09:25:46;;;;;;;7.20;4.03;;;24.90;30.60;;;;;;5071065;28;20426;-72
2022/07/12 09:28:11;;;;;;;5.33;4.20;;;25.40;29.40;;;;;;5070765;28;20248;-72
2022/07/12 09:30:47;;;;;;;4.47;4.17;;;26.00;28.40;;;;;;5067206;28;20433;-72
2022/07/12 09:36:07;;;;;;;4.93;3.47;;;26.50;27.50;;;;;;5066376;28;20490;-73
2022/07/12 09:38:44;;;;;;;4.00;3.70;;;26.30;26.40;;;;;;5067710;28;20441;-72
2022/07/12 09:41:15;;;;;;;3.63;3.27;;;26.00;26.00;;;;;;5065033;28;20460;-72
2022/07/12 09:43:42;;;;;;;3.50;3.30;;;26.20;26.80;;;;;;5068340;28;20452;-72
2022/07/12 09:46:09;;;;;;;4.83;3.60;;;26.30;25.90;;;;;;5070756;28;20413;-72
2022/07/12 09:48:37;;;;;;;3.93;3.00;;;26.20;25.90;;;;;;5070243;28;20531;-72
2022/07/12 09:51:04;;;;;;;4.60;3.50;;;26.00;25.70;;;;;;5069403;28;20609;-73
2022/07/12 09:53:38;;;;;;;5.60;3.57;;;26.50;26.20;;;;;;5070559;28;20417;-73
2022/07/12 09:56:06;;;;;;;3.53;3.10;;;26.70;26.40;;;;;;5067255;28;20433;-72
2022/07/12 09:58:40;;;;;;;3.97;2.93;;;27.00;25.00;;;;;;5069674;28;21050;-72
2022/07/12 10:01:07;;;;;;;6.10;3.30;;;27.10;24.10;;;;;;5064410;28;20464;-72
2022/07/12 10:03:36;;;;;;;5.20;3.07;;;26.80;24.60;;;;;;5068348;28;21167;-72
2022/07/12 10:06:02;;;;;;;4.30;3.00;;;26.80;25.50;;;;;;5067289;28;20447;-72
2022/07/12 10:08:29;;;;;;;5.07;2.87;;;26.80;24.30;;;;;;5070014;28;20459;-72
2022/07/12 10:10:56;;;;;;;2.93;2.77;;;25.60;25.70;;;;;;5069341;28;20425;-70
2022/07/12 10:13:22;;;;;;;2.70;2.60;;;26.00;26.10;;;;;;5069848;28;20920;-72
2022/07/12 10:15:50;;;;;;;4.17;2.70;;;26.60;25.10;;;;;;5061936;28;20417;-72
2022/07/12 10:18:20;;;;;;;4.03;2.63;;;27.20;24.70;;;;;;5068882;28;20477;-72
2022/07/12 10:20:49;;;;;;;3.97;3.33;;;27.50;23.10;;;;;;5061244;28;20493;-72
2022/07/12 10:23:34;;;;;;;3.10;2.97;;;27.50;22.70;;;;;;5061185;28;20421;-72
2022/07/12 10:26:15;;;;;;;5.37;3.40;;;26.70;24.60;;;;;;5070551;28;20788;-72
2022/07/12 10:29:09;;;;;;;4.00;3.80;;;25.90;24.30;;;;;;5070748;28;20490;-72
2022/07/12 10:31:36;;;;;;;8.50;4.37;;;26.00;24.80;;;;;;5059064;28;20504;-72
2022/07/12 10:34:10;;;;;;;4.23;3.80;;;26.30;26.00;;;;;;5069712;28;20409;-72
2022/07/12 10:36:54;;;;;;;13.43;4.53;;;26.70;25.10;;;;;;5060122;28;20437;-72
2022/07/12 10:39:21;;;;;;;6.90;4.57;;;27.00;25.40;;;;;;5066857;28;20429;-72
2022/07/12 10:42:07;;;;;;;4.90;4.10;;;27.10;23.90;;;;;;5066901;28;20463;-72
2022/07/12 10:44:38;;;;;;;4.40;4.07;;;27.10;24.20;;;;;;5059188;28;20917;-72
2022/07/12 10:47:05;;;;;;;6.77;4.30;;;27.00;25.00;;;;;;5070353;28;20424;-72
2022/07/12 10:49:32;;;;;;;4.27;3.80;;;26.40;24.40;;;;;;5069941;28;20551;-72
2022/07/12 10:52:10;;;;;;;5.53;4.10;;;26.60;25.80;;;;;;5061446;28;20420;-71
2022/07/12 10:54:54;;;;;;;3.70;3.50;;;26.80;24.70;;;;;;5062592;28;20421;-72
2022/07/12 10:57:39;;;;;;;4.03;3.70;;;26.70;24.50;;;;;;5064399;28;20908;-72
2022/07/12 11:00:05;;;;;;;6.63;3.80;;;27.20;23.90;;;;;;5069694;28;20452;-71
2022/07/12 11:02:31;;;;;;;3.20;3.00;;;27.80;24.30;;;;;;5071563;28;20441;-72
2022/07/12 11:04:57;;;;;;;4.30;3.23;;;27.90;22.90;;;;;;5063809;28;20966;-71
2022/07/12 11:07:24;;;;;;;7.03;3.30;;;27.50;24.20;;;;;;5066880;28;20194;-71
2022/07/12 11:09:53;;;;;;;3.43;3.10;;;27.90;23.40;;;;;;5073605;28;20425;-73
2022/07/12 11:12:19;;;;;;;4.47;2.93;;;27.50;22.80;;;;;;5064961;28;20906;-71
2022/07/12 11:14:51;;;;;;;3.40;3.00;;;27.30;22.10;;;;;;5073270;28;20511;-72
2022/07/12 11:17:24;;;;;;;3.43;3.23;;;27.40;23.90;;;;;;5073323;28;20265;-72
2022/07/12 11:20:02;;;;;;;3.67;2.70;;;27.60;23.00;;;;;;5066668;28;20497;-72
2022/07/12 11:22:27;;;;;;;2.77;2.60;;;27.00;23.90;;;;;;5064581;28;20511;-72
2022/07/12 11:24:54;;;;;;;6.20;2.80;;;26.50;22.50;;;;;;5066874;28;20514;-71
2022/07/12 11:27:20;;;;;;;2.70;2.50;;;26.30;24.20;;;;;;5070029;28;20179;-72
2022/07/12 11:30:03;;;;;;;4.67;3.13;;;26.80;24.10;;;;;;5073218;28;20506;-72
2022/07/12 11:32:43;;;;;;;4.10;2.53;;;27.40;24.10;;;;;;5072690;28;20425;-72
2022/07/12 11:35:22;;;;;;;2.87;2.63;;;28.30;24.60;;;;;;5064725;28;20792;-73
2022/07/12 11:37:56;;;;;;;2.90;2.70;;;27.90;21.70;;;;;;5069662;28;20506;-72
2022/07/12 11:40:23;;;;;;;3.40;2.67;;;29.30;20.00;;;;;;5063491;28;22127;-73
2022/07/12 11:42:58;;;;;;;3.30;2.57;;;28.80;21.50;;;;;;5067676;28;20433;-71
2022/07/12 11:45:33;;;;;;;3.10;2.83;;;30.20;19.80;;;;;;5066574;28;20474;-73
2022/07/12 11:48:03;;;;;;;2.97;2.70;;;31.40;19.30;;;;;;5066618;28;20464;-72
2022/07/12 11:50:30;;;;;;;3.63;2.60;;;32.10;17.90;;;;;;5072262;28;20784;-73
2022/07/12 11:52:56;;;;;;;9.20;2.77;;;32.30;17.30;;;;;;5071453;28;20433;-73
2022/07/12 11:55:22;;;;;;;4.60;2.33;;;32.30;15.90;;;;;;5066409;28;20424;-72
2022/07/12 11:57:48;;;;;;;2.97;2.40;;;31.50;17.80;;;;;;5067373;28;20463;-72
2022/07/12 12:00:14;;;;;;;3.60;2.60;;;31.50;16.60;;;;;;5071716;28;20457;-72
2022/07/12 12:02:40;;;;;;;2.93;2.30;;;31.70;15.80;;;;;;5071243;28;20185;-72
2022/07/12 12:05:06;;;;;;;5.93;2.50;;;31.40;17.50;;;;;;5071391;28;20441;-73
2022/07/12 12:07:32;;;;;;;5.00;2.37;;;32.00;15.90;;;;;;5072530;28;20543;-73
2022/07/12 12:09:59;;;;;;;2.70;2.40;;;31.80;17.10;;;;;;5072519;28;20433;-76
2022/07/12 12:12:25;;;;;;;2.37;2.17;;;32.30;16.00;;;;;;5071992;28;20179;-73
2022/07/12 12:14:51;;;;;;;2.30;1.97;;;32.10;16.10;;;;;;5071411;28;20443;-72
2022/07/12 12:17:17;;;;;;;2.37;2.07;;;29.90;16.70;;;;;;5068572;28;20754;-73
2022/07/12 12:19:43;;;;;;;2.50;2.40;;;29.00;18.00;;;;;;5071198;28;20206;-73
2022/07/12 12:22:49;;;;;;;6.40;2.70;;;29.90;18.50;;;;;;5070402;28;20433;-73
2022/07/12 12:25:15;;;;;;;2.33;2.20;;;30.70;16.70;;;;;;4987298;28;20185;-73
2022/07/12 12:27:45;;;;;;;2.20;2.00;;;31.60;15.80;;;;;;4990567;28;20439;-73
2022/07/12 12:30:12;;;;;;;2.20;2.00;;;32.00;15.10;;;;;;4986789;28;20432;-73
2022/07/12 12:32:53;;;;;;;2.27;2.07;;;32.40;15.60;;;;;;4987066;28;20520;-73
2022/07/12 12:35:21;;;;;;;2.73;2.20;;;33.30;14.40;;;;;;4988354;28;20440;-73
2022/07/12 12:38:01;;;;;;;2.17;2.00;;;33.40;15.20;;;;;;4986695;28;20445;-73
2022/07/12 12:40:34;;;;;;;2.17;2.03;;;33.00;15.00;;;;;;4958299;28;20483;-73
2022/07/12 12:43:17;;;;;;;4.03;2.10;;;33.00;13.70;;;;;;4989711;28;20518;-73
2022/07/12 12:45:53;;;;;;;3.03;2.10;;;33.00;14.10;;;;;;4990086;28;20507;-73
2022/07/12 12:48:23;;;;;;;5.43;2.30;;;31.40;15.40;;;;;;4982640;28;20477;-73
2022/07/12 12:50:53;;;;;;;2.73;2.03;;;29.80;16.40;;;;;;4971820;28;20433;-72
2022/07/12 12:53:23;;;;;;;2.20;2.10;;;29.10;18.10;;;;;;4988412;28;20456;-73
2022/07/12 12:55:52;;;;;;;5.20;2.00;;;30.60;16.70;;;;;;5018833;28;20460;-72